sensor_id;sensor_type;location;lat;lon;timestamp;P1;durP1;ratioP1;P2;durP2;ratioP2
46014;SDS011;36844;51.898;-0.874;2023-10-08T00:01:52;2.75;;;1.88;;
46014;SDS011;36844;51.898;-0.874;2023-10-08T00:04:20;3.10;;;2.10;;
46014;SDS011;36844;51.898;-0.874;2023-10-08T00:06:46;2.58;;;1.55;;
46014;SDS011;36844;51.898;-0.874;2023-10-08T00:09:11;2.80;;;1.83;;
46014;SDS011;36844;51.898;-0.874;2023-10-08T00:11:37;2.60;;;1.80;;
46014;SDS011;36844;51.898;-0.874;2023-10-08T00:14:04;3.22;;;1.80;;
46014;SDS011;36844;51.898;-0.874;2023-10-08T00:16:46;3.17;;;1.92;;
46014;SDS011;36844;51.898;-0.874;2023-10-08T00:19:14;2.88;;;1.83;;
46014;SDS011;36844;51.898;-0.874;2023-10-08T00:21:43;2.72;;;2.05;;
46014;SDS011;36844;51.898;-0.874;2023-10-08T00:24:10;4.15;;;2.75;;
46014;SDS011;36844;51.898;-0.874;2023-10-08T00:26:37;2.60;;;1.60;;
46014;SDS011;36844;51.898;-0.874;2023-10-08T00:29:05;8.23;;;2.70;;
46014;SDS011;36844;51.898;-0.874;2023-10-08T00:31:44;2.55;;;1.58;;
46014;SDS011;36844;51.898;-0.874;2023-10-08T00:34:11;3.45;;;2.08;;
46014;SDS011;36844;51.898;-0.874;2023-10-08T00:36:38;2.80;;;2.10;;
46014;SDS011;36844;51.898;-0.874;2023-10-08T00:39:07;3.33;;;1.90;;
46014;SDS011;36844;51.898;-0.874;2023-10-08T00:41:39;3.60;;;1.77;;
46014;SDS011;36844;51.898;-0.874;2023-10-08T00:44:11;3.45;;;1.88;;
46014;SDS011;36844;51.898;-0.874;2023-10-08T00:46:47;4.47;;;2.30;;
46014;SDS011;36844;51.898;-0.874;2023-10-08T00:49:13;2.53;;;1.77;;
46014;SDS011;36844;51.898;-0.874;2023-10-08T00:51:47;3.80;;;2.40;;
46014;SDS011;36844;51.898;-0.874;2023-10-08T00:54:28;2.85;;;1.90;;
46014;SDS011;36844;51.898;-0.874;2023-10-08T00:56:58;3.78;;;1.98;;
46014;SDS011;36844;51.898;-0.874;2023-10-08T00:59:27;3.63;;;1.88;;
46014;SDS011;36844;51.898;-0.874;2023-10-08T01:01:58;4.38;;;2.10;;
46014;SDS011;36844;51.898;-0.874;2023-10-08T01:04:32;5.25;;;1.90;;
46014;SDS011;36844;51.898;-0.874;2023-10-08T01:07:02;2.85;;;1.58;;
46014;SDS011;36844;51.898;-0.874;2023-10-08T01:09:37;2.05;;;1.40;;
46014;SDS011;36844;51.898;-0.874;2023-10-08T01:14:40;6.13;;;2.70;;
46014;SDS011;36844;51.898;-0.874;2023-10-08T01:17:08;3.10;;;1.73;;
46014;SDS011;36844;51.898;-0.874;2023-10-08T01:19:34;2.50;;;1.85;;
46014;SDS011;36844;51.898;-0.874;2023-10-08T01:22:05;2.72;;;1.88;;
46014;SDS011;36844;51.898;-0.874;2023-10-08T01:24:32;2.95;;;1.80;;
46014;SDS011;36844;51.898;-0.874;2023-10-08T01:27:00;3.63;;;2.00;;
46014;SDS011;36844;51.898;-0.874;2023-10-08T01:29:29;3.95;;;1.90;;
46014;SDS011;36844;51.898;-0.874;2023-10-08T01:31:54;4.28;;;1.73;;
46014;SDS011;36844;51.898;-0.874;2023-10-08T01:34:20;3.05;;;1.75;;
46014;SDS011;36844;51.898;-0.874;2023-10-08T01:36:52;4.10;;;1.92;;
46014;SDS011;36844;51.898;-0.874;2023-10-08T01:39:17;2.38;;;1.60;;
46014;SDS011;36844;51.898;-0.874;2023-10-08T01:41:43;3.15;;;1.65;;
46014;SDS011;36844;51.898;-0.874;2023-10-08T01:44:09;3.03;;;1.58;;
46014;SDS011;36844;51.898;-0.874;2023-10-08T01:46:35;2.78;;;1.83;;
46014;SDS011;36844;51.898;-0.874;2023-10-08T01:49:01;2.60;;;1.90;;
46014;SDS011;36844;51.898;-0.874;2023-10-08T01:51:33;2.60;;;1.77;;
46014;SDS011;36844;51.898;-0.874;2023-10-08T01:54:11;3.35;;;1.75;;
46014;SDS011;36844;51.898;-0.874;2023-10-08T01:56:39;2.58;;;1.80;;
46014;SDS011;36844;51.898;-0.874;2023-10-08T01:59:11;2.55;;;1.70;;
46014;SDS011;36844;51.898;-0.874;2023-10-08T02:01:39;4.65;;;1.92;;
46014;SDS011;36844;51.898;-0.874;2023-10-08T02:04:06;4.20;;;2.88;;
46014;SDS011;36844;51.898;-0.874;2023-10-08T02:06:32;2.85;;;2.20;;
46014;SDS011;36844;51.898;-0.874;2023-10-08T02:08:59;3.55;;;2.15;;
46014;SDS011;36844;51.898;-0.874;2023-10-08T02:11:30;3.63;;;1.80;;
46014;SDS011;36844;51.898;-0.874;2023-10-08T02:13:57;4.22;;;1.90;;
46014;SDS011;36844;51.898;-0.874;2023-10-08T02:16:22;2.65;;;1.77;;
46014;SDS011;36844;51.898;-0.874;2023-10-08T02:18:47;4.72;;;2.08;;
46014;SDS011;36844;51.898;-0.874;2023-10-08T02:21:15;4.45;;;1.83;;
46014;SDS011;36844;51.898;-0.874;2023-10-08T02:23:40;5.22;;;2.05;;
46014;SDS011;36844;51.898;-0.874;2023-10-08T02:26:05;2.72;;;1.63;;
46014;SDS011;36844;51.898;-0.874;2023-10-08T02:28:31;3.85;;;1.77;;
46014;SDS011;36844;51.898;-0.874;2023-10-08T02:30:58;3.08;;;1.67;;
46014;SDS011;36844;51.898;-0.874;2023-10-08T02:33:25;2.30;;;1.73;;
46014;SDS011;36844;51.898;-0.874;2023-10-08T02:35:51;2.97;;;1.85;;
46014;SDS011;36844;51.898;-0.874;2023-10-08T02:38:17;2.03;;;1.40;;
46014;SDS011;36844;51.898;-0.874;2023-10-08T02:40:46;2.85;;;1.70;;
46014;SDS011;36844;51.898;-0.874;2023-10-08T02:43:13;3.95;;;2.05;;
46014;SDS011;36844;51.898;-0.874;2023-10-08T02:45:41;3.45;;;1.65;;
46014;SDS011;36844;51.898;-0.874;2023-10-08T02:48:09;2.28;;;1.77;;
46014;SDS011;36844;51.898;-0.874;2023-10-08T02:50:41;3.22;;;1.80;;
46014;SDS011;36844;51.898;-0.874;2023-10-08T02:53:07;3.70;;;2.22;;
46014;SDS011;36844;51.898;-0.874;2023-10-08T02:55:39;4.10;;;2.08;;
46014;SDS011;36844;51.898;-0.874;2023-10-08T02:58:11;3.60;;;1.77;;
46014;SDS011;36844;51.898;-0.874;2023-10-08T03:00:40;2.75;;;1.80;;
46014;SDS011;36844;51.898;-0.874;2023-10-08T03:03:11;3.05;;;1.63;;
46014;SDS011;36844;51.898;-0.874;2023-10-08T03:05:42;3.05;;;2.03;;
46014;SDS011;36844;51.898;-0.874;2023-10-08T03:08:09;2.83;;;1.73;;
46014;SDS011;36844;51.898;-0.874;2023-10-08T03:10:36;3.17;;;2.17;;
46014;SDS011;36844;51.898;-0.874;2023-10-08T03:13:03;3.40;;;2.38;;
46014;SDS011;36844;51.898;-0.874;2023-10-08T03:15:32;3.13;;;2.15;;
46014;SDS011;36844;51.898;-0.874;2023-10-08T03:18:11;3.72;;;2.10;;
46014;SDS011;36844;51.898;-0.874;2023-10-08T03:20:39;3.85;;;2.05;;
46014;SDS011;36844;51.898;-0.874;2023-10-08T03:23:14;2.83;;;1.75;;
46014;SDS011;36844;51.898;-0.874;2023-10-08T03:26:00;2.05;;;1.60;;
46014;SDS011;36844;51.898;-0.874;2023-10-08T03:28:57;3.30;;;2.10;;
46014;SDS011;36844;51.898;-0.874;2023-10-08T03:31:24;2.72;;;1.75;;
46014;SDS011;36844;51.898;-0.874;2023-10-08T03:34:12;3.33;;;2.08;;
46014;SDS011;36844;51.898;-0.874;2023-10-08T03:36:40;3.40;;;2.00;;
46014;SDS011;36844;51.898;-0.874;2023-10-08T03:39:12;2.80;;;1.90;;
46014;SDS011;36844;51.898;-0.874;2023-10-08T03:41:39;2.75;;;2.00;;
46014;SDS011;36844;51.898;-0.874;2023-10-08T03:44:05;2.53;;;1.73;;
46014;SDS011;36844;51.898;-0.874;2023-10-08T03:46:38;4.63;;;2.30;;
46014;SDS011;36844;51.898;-0.874;2023-10-08T03:49:11;3.88;;;1.83;;
46014;SDS011;36844;51.898;-0.874;2023-10-08T03:51:50;1.95;;;1.73;;
46014;SDS011;36844;51.898;-0.874;2023-10-08T03:54:20;2.65;;;1.90;;
46014;SDS011;36844;51.898;-0.874;2023-10-08T03:56:55;3.10;;;1.92;;
46014;SDS011;36844;51.898;-0.874;2023-10-08T03:59:21;3.30;;;2.03;;
46014;SDS011;36844;51.898;-0.874;2023-10-08T04:01:59;3.38;;;1.50;;
46014;SDS011;36844;51.898;-0.874;2023-10-08T04:04:46;2.55;;;1.65;;
46014;SDS011;36844;51.898;-0.874;2023-10-08T04:07:22;2.40;;;1.83;;
46014;SDS011;36844;51.898;-0.874;2023-10-08T04:09:57;3.60;;;1.73;;
46014;SDS011;36844;51.898;-0.874;2023-10-08T04:12:38;3.08;;;2.25;;
46014;SDS011;36844;51.898;-0.874;2023-10-08T04:15:09;3.13;;;1.80;;
46014;SDS011;36844;51.898;-0.874;2023-10-08T04:17:37;3.00;;;1.95;;
46014;SDS011;36844;51.898;-0.874;2023-10-08T04:20:09;3.92;;;1.80;;
46014;SDS011;36844;51.898;-0.874;2023-10-08T04:23:00;2.33;;;1.80;;
46014;SDS011;36844;51.898;-0.874;2023-10-08T04:25:26;1.98;;;1.50;;
46014;SDS011;36844;51.898;-0.874;2023-10-08T04:27:55;2.22;;;1.70;;
46014;SDS011;36844;51.898;-0.874;2023-10-08T04:30:24;4.60;;;2.30;;
46014;SDS011;36844;51.898;-0.874;2023-10-08T04:32:57;4.65;;;2.45;;
46014;SDS011;36844;51.898;-0.874;2023-10-08T04:35:23;2.67;;;1.65;;
46014;SDS011;36844;51.898;-0.874;2023-10-08T04:37:51;3.40;;;1.67;;
46014;SDS011;36844;51.898;-0.874;2023-10-08T04:40:18;2.78;;;1.80;;
46014;SDS011;36844;51.898;-0.874;2023-10-08T04:42:47;3.33;;;2.30;;
46014;SDS011;36844;51.898;-0.874;2023-10-08T04:45:13;2.80;;;1.88;;
46014;SDS011;36844;51.898;-0.874;2023-10-08T04:47:39;4.80;;;2.03;;
46014;SDS011;36844;51.898;-0.874;2023-10-08T04:50:08;5.28;;;2.45;;
46014;SDS011;36844;51.898;-0.874;2023-10-08T04:52:42;4.10;;;2.03;;
46014;SDS011;36844;51.898;-0.874;2023-10-08T04:55:11;5.25;;;2.40;;
46014;SDS011;36844;51.898;-0.874;2023-10-08T04:57:53;2.42;;;1.85;;
46014;SDS011;36844;51.898;-0.874;2023-10-08T05:00:19;5.25;;;2.00;;
46014;SDS011;36844;51.898;-0.874;2023-10-08T05:03:04;3.53;;;2.10;;
46014;SDS011;36844;51.898;-0.874;2023-10-08T05:05:39;6.10;;;2.25;;
46014;SDS011;36844;51.898;-0.874;2023-10-08T05:08:20;2.60;;;1.63;;
46014;SDS011;36844;51.898;-0.874;2023-10-08T05:11:12;2.92;;;2.10;;
46014;SDS011;36844;51.898;-0.874;2023-10-08T05:13:49;4.07;;;1.83;;
46014;SDS011;36844;51.898;-0.874;2023-10-08T05:16:27;2.85;;;1.88;;
46014;SDS011;36844;51.898;-0.874;2023-10-08T05:19:08;4.13;;;2.30;;
46014;SDS011;36844;51.898;-0.874;2023-10-08T05:21:53;2.90;;;2.05;;
46014;SDS011;36844;51.898;-0.874;2023-10-08T05:24:30;4.47;;;2.42;;
46014;SDS011;36844;51.898;-0.874;2023-10-08T05:27:03;4.13;;;2.10;;
46014;SDS011;36844;51.898;-0.874;2023-10-08T05:29:48;3.47;;;2.15;;
46014;SDS011;36844;51.898;-0.874;2023-10-08T05:32:39;5.28;;;2.63;;
46014;SDS011;36844;51.898;-0.874;2023-10-08T05:35:24;2.97;;;1.95;;
46014;SDS011;36844;51.898;-0.874;2023-10-08T05:38:03;5.82;;;1.85;;
46014;SDS011;36844;51.898;-0.874;2023-10-08T05:40:39;5.60;;;2.50;;
46014;SDS011;36844;51.898;-0.874;2023-10-08T05:43:29;4.15;;;1.63;;
46014;SDS011;36844;51.898;-0.874;2023-10-08T05:46:03;2.88;;;1.65;;
46014;SDS011;36844;51.898;-0.874;2023-10-08T05:48:56;3.92;;;1.98;;
46014;SDS011;36844;51.898;-0.874;2023-10-08T05:54:10;5.93;;;1.50;;
46014;SDS011;36844;51.898;-0.874;2023-10-08T05:56:50;3.03;;;1.92;;
46014;SDS011;36844;51.898;-0.874;2023-10-08T05:59:34;3.55;;;1.63;;
46014;SDS011;36844;51.898;-0.874;2023-10-08T06:02:21;5.50;;;2.65;;
46014;SDS011;36844;51.898;-0.874;2023-10-08T06:05:03;2.88;;;1.70;;
46014;SDS011;36844;51.898;-0.874;2023-10-08T06:07:38;3.28;;;1.75;;
46014;SDS011;36844;51.898;-0.874;2023-10-08T06:10:18;3.63;;;2.05;;
46014;SDS011;36844;51.898;-0.874;2023-10-08T06:15:48;3.20;;;1.77;;
46014;SDS011;36844;51.898;-0.874;2023-10-08T06:18:31;2.72;;;1.67;;
46014;SDS011;36844;51.898;-0.874;2023-10-08T06:20:58;3.25;;;1.77;;
46014;SDS011;36844;51.898;-0.874;2023-10-08T06:23:26;2.72;;;1.60;;
46014;SDS011;36844;51.898;-0.874;2023-10-08T06:25:57;3.05;;;1.60;;
46014;SDS011;36844;51.898;-0.874;2023-10-08T06:28:30;3.88;;;1.63;;
46014;SDS011;36844;51.898;-0.874;2023-10-08T06:30:59;3.85;;;1.67;;
46014;SDS011;36844;51.898;-0.874;2023-10-08T06:33:26;4.88;;;2.00;;
46014;SDS011;36844;51.898;-0.874;2023-10-08T06:35:56;2.97;;;1.50;;
46014;SDS011;36844;51.898;-0.874;2023-10-08T06:38:31;2.53;;;1.73;;
46014;SDS011;36844;51.898;-0.874;2023-10-08T06:40:57;4.15;;;2.22;;
46014;SDS011;36844;51.898;-0.874;2023-10-08T06:43:33;4.28;;;1.77;;
46014;SDS011;36844;51.898;-0.874;2023-10-08T06:46:01;3.10;;;2.15;;
46014;SDS011;36844;51.898;-0.874;2023-10-08T06:48:28;7.20;;;1.92;;
46014;SDS011;36844;51.898;-0.874;2023-10-08T06:50:54;3.70;;;2.40;;
46014;SDS011;36844;51.898;-0.874;2023-10-08T06:53:23;5.85;;;2.65;;
46014;SDS011;36844;51.898;-0.874;2023-10-08T06:55:49;6.40;;;2.83;;
46014;SDS011;36844;51.898;-0.874;2023-10-08T06:58:21;3.47;;;2.13;;
46014;SDS011;36844;51.898;-0.874;2023-10-08T07:00:50;4.10;;;2.40;;
46014;SDS011;36844;51.898;-0.874;2023-10-08T07:03:17;3.17;;;2.08;;
46014;SDS011;36844;51.898;-0.874;2023-10-08T07:05:46;7.85;;;2.42;;
46014;SDS011;36844;51.898;-0.874;2023-10-08T07:08:33;4.88;;;2.35;;
46014;SDS011;36844;51.898;-0.874;2023-10-08T07:11:01;4.65;;;2.45;;
46014;SDS011;36844;51.898;-0.874;2023-10-08T07:13:31;8.95;;;2.30;;
46014;SDS011;36844;51.898;-0.874;2023-10-08T07:15:57;4.63;;;2.30;;
46014;SDS011;36844;51.898;-0.874;2023-10-08T07:18:23;5.72;;;2.33;;
46014;SDS011;36844;51.898;-0.874;2023-10-08T07:20:52;4.35;;;2.03;;
46014;SDS011;36844;51.898;-0.874;2023-10-08T07:23:19;3.70;;;2.15;;
46014;SDS011;36844;51.898;-0.874;2023-10-08T07:25:57;3.00;;;1.98;;
46014;SDS011;36844;51.898;-0.874;2023-10-08T07:28:47;4.65;;;2.00;;
46014;SDS011;36844;51.898;-0.874;2023-10-08T07:31:16;5.03;;;1.63;;
46014;SDS011;36844;51.898;-0.874;2023-10-08T07:33:46;3.42;;;1.90;;
46014;SDS011;36844;51.898;-0.874;2023-10-08T07:36:13;2.75;;;1.50;;
46014;SDS011;36844;51.898;-0.874;2023-10-08T07:38:43;5.80;;;2.60;;
46014;SDS011;36844;51.898;-0.874;2023-10-08T07:41:09;3.15;;;2.08;;
46014;SDS011;36844;51.898;-0.874;2023-10-08T07:43:39;3.60;;;1.70;;
46014;SDS011;36844;51.898;-0.874;2023-10-08T07:46:08;5.97;;;2.05;;
46014;SDS011;36844;51.898;-0.874;2023-10-08T07:48:34;4.18;;;2.13;;
46014;SDS011;36844;51.898;-0.874;2023-10-08T07:51:00;3.10;;;1.83;;
46014;SDS011;36844;51.898;-0.874;2023-10-08T07:53:27;4.80;;;1.80;;
46014;SDS011;36844;51.898;-0.874;2023-10-08T07:56:02;4.00;;;2.65;;
46014;SDS011;36844;51.898;-0.874;2023-10-08T07:58:31;3.42;;;2.25;;
46014;SDS011;36844;51.898;-0.874;2023-10-08T08:01:06;4.38;;;1.75;;
46014;SDS011;36844;51.898;-0.874;2023-10-08T08:03:34;3.53;;;1.77;;
46014;SDS011;36844;51.898;-0.874;2023-10-08T08:06:01;2.88;;;1.70;;
46014;SDS011;36844;51.898;-0.874;2023-10-08T08:08:34;6.68;;;2.33;;
46014;SDS011;36844;51.898;-0.874;2023-10-08T08:11:04;8.40;;;3.28;;
46014;SDS011;36844;51.898;-0.874;2023-10-08T08:13:37;8.23;;;3.30;;
46014;SDS011;36844;51.898;-0.874;2023-10-08T08:16:09;5.13;;;2.85;;
46014;SDS011;36844;51.898;-0.874;2023-10-08T08:18:46;6.88;;;2.88;;
46014;SDS011;36844;51.898;-0.874;2023-10-08T08:21:14;5.25;;;2.75;;
46014;SDS011;36844;51.898;-0.874;2023-10-08T08:23:41;9.07;;;3.47;;
46014;SDS011;36844;51.898;-0.874;2023-10-08T08:26:12;4.70;;;2.13;;
46014;SDS011;36844;51.898;-0.874;2023-10-08T08:28:51;33.67;;;8.88;;
46014;SDS011;36844;51.898;-0.874;2023-10-08T08:31:17;31.45;;;8.88;;
46014;SDS011;36844;51.898;-0.874;2023-10-08T08:33:44;32.90;;;9.50;;
46014;SDS011;36844;51.898;-0.874;2023-10-08T08:36:19;100.88;;;23.77;;
46014;SDS011;36844;51.898;-0.874;2023-10-08T08:38:45;127.97;;;33.15;;
46014;SDS011;36844;51.898;-0.874;2023-10-08T08:41:11;93.00;;;26.80;;
46014;SDS011;36844;51.898;-0.874;2023-10-08T08:43:37;95.80;;;24.38;;
46014;SDS011;36844;51.898;-0.874;2023-10-08T08:46:08;72.25;;;23.23;;
46014;SDS011;36844;51.898;-0.874;2023-10-08T08:48:37;67.32;;;18.67;;
46014;SDS011;36844;51.898;-0.874;2023-10-08T08:51:05;73.20;;;21.90;;
46014;SDS011;36844;51.898;-0.874;2023-10-08T08:53:32;64.55;;;18.23;;
46014;SDS011;36844;51.898;-0.874;2023-10-08T08:55:59;63.45;;;19.83;;
46014;SDS011;36844;51.898;-0.874;2023-10-08T08:58:29;68.57;;;18.45;;
46014;SDS011;36844;51.898;-0.874;2023-10-08T09:00:56;80.43;;;21.23;;
46014;SDS011;36844;51.898;-0.874;2023-10-08T09:03:23;78.40;;;21.42;;
46014;SDS011;36844;51.898;-0.874;2023-10-08T09:05:55;59.67;;;17.05;;
46014;SDS011;36844;51.898;-0.874;2023-10-08T09:08:21;57.63;;;15.82;;
46014;SDS011;36844;51.898;-0.874;2023-10-08T09:10:49;43.13;;;13.57;;
46014;SDS011;36844;51.898;-0.874;2023-10-08T09:13:20;42.47;;;13.73;;
46014;SDS011;36844;51.898;-0.874;2023-10-08T09:15:47;37.40;;;12.75;;
46014;SDS011;36844;51.898;-0.874;2023-10-08T09:18:13;39.80;;;11.85;;
46014;SDS011;36844;51.898;-0.874;2023-10-08T09:20:39;46.30;;;13.65;;
46014;SDS011;36844;51.898;-0.874;2023-10-08T09:23:15;37.17;;;13.05;;
46014;SDS011;36844;51.898;-0.874;2023-10-08T09:25:46;33.38;;;10.88;;
46014;SDS011;36844;51.898;-0.874;2023-10-08T09:28:15;26.83;;;10.20;;
46014;SDS011;36844;51.898;-0.874;2023-10-08T09:30:41;29.83;;;10.68;;
46014;SDS011;36844;51.898;-0.874;2023-10-08T09:33:10;30.63;;;9.00;;
46014;SDS011;36844;51.898;-0.874;2023-10-08T09:35:41;36.22;;;10.55;;
46014;SDS011;36844;51.898;-0.874;2023-10-08T09:38:08;26.63;;;10.23;;
46014;SDS011;36844;51.898;-0.874;2023-10-08T09:40:35;20.15;;;8.40;;
46014;SDS011;36844;51.898;-0.874;2023-10-08T09:43:02;21.30;;;8.55;;
46014;SDS011;36844;51.898;-0.874;2023-10-08T09:45:29;26.63;;;8.05;;
46014;SDS011;36844;51.898;-0.874;2023-10-08T09:47:55;18.13;;;6.18;;
46014;SDS011;36844;51.898;-0.874;2023-10-08T09:50:31;21.38;;;7.47;;
46014;SDS011;36844;51.898;-0.874;2023-10-08T09:53:09;17.15;;;6.57;;
46014;SDS011;36844;51.898;-0.874;2023-10-08T09:55:54;19.35;;;6.82;;
46014;SDS011;36844;51.898;-0.874;2023-10-08T09:58:24;18.73;;;6.57;;
46014;SDS011;36844;51.898;-0.874;2023-10-08T10:00:51;18.08;;;6.35;;
46014;SDS011;36844;51.898;-0.874;2023-10-08T10:03:19;15.43;;;5.50;;
46014;SDS011;36844;51.898;-0.874;2023-10-08T10:05:45;19.15;;;5.78;;
46014;SDS011;36844;51.898;-0.874;2023-10-08T10:08:14;16.98;;;6.13;;
46014;SDS011;36844;51.898;-0.874;2023-10-08T10:10:40;15.50;;;5.53;;
46014;SDS011;36844;51.898;-0.874;2023-10-08T10:13:11;11.85;;;5.15;;
46014;SDS011;36844;51.898;-0.874;2023-10-08T10:15:37;14.52;;;5.05;;
46014;SDS011;36844;51.898;-0.874;2023-10-08T10:20:59;11.20;;;4.68;;
46014;SDS011;36844;51.898;-0.874;2023-10-08T10:23:35;12.73;;;4.63;;
46014;SDS011;36844;51.898;-0.874;2023-10-08T10:31:41;12.98;;;4.97;;
46014;SDS011;36844;51.898;-0.874;2023-10-08T10:34:16;8.77;;;4.30;;
46014;SDS011;36844;51.898;-0.874;2023-10-08T10:36:43;10.63;;;3.88;;
46014;SDS011;36844;51.898;-0.874;2023-10-08T10:39:13;8.60;;;4.18;;
46014;SDS011;36844;51.898;-0.874;2023-10-08T10:41:46;6.05;;;3.17;;
46014;SDS011;36844;51.898;-0.874;2023-10-08T10:44:13;11.35;;;3.60;;
46014;SDS011;36844;51.898;-0.874;2023-10-08T10:46:42;6.07;;;2.97;;
46014;SDS011;36844;51.898;-0.874;2023-10-08T10:49:15;8.23;;;2.53;;
46014;SDS011;36844;51.898;-0.874;2023-10-08T10:51:49;5.80;;;3.25;;
46014;SDS011;36844;51.898;-0.874;2023-10-08T10:54:25;8.60;;;3.03;;
46014;SDS011;36844;51.898;-0.874;2023-10-08T10:56:51;7.38;;;3.00;;
46014;SDS011;36844;51.898;-0.874;2023-10-08T10:59:42;7.90;;;3.13;;
46014;SDS011;36844;51.898;-0.874;2023-10-08T11:02:18;8.07;;;3.00;;
46014;SDS011;36844;51.898;-0.874;2023-10-08T11:04:55;6.18;;;2.50;;
46014;SDS011;36844;51.898;-0.874;2023-10-08T11:07:32;9.88;;;3.63;;
46014;SDS011;36844;51.898;-0.874;2023-10-08T11:09:59;8.25;;;3.15;;
46014;SDS011;36844;51.898;-0.874;2023-10-08T11:12:24;12.38;;;3.10;;
46014;SDS011;36844;51.898;-0.874;2023-10-08T11:15:07;4.70;;;2.70;;
46014;SDS011;36844;51.898;-0.874;2023-10-08T11:17:40;4.88;;;2.42;;
46014;SDS011;36844;51.898;-0.874;2023-10-08T11:20:22;8.25;;;3.00;;
46014;SDS011;36844;51.898;-0.874;2023-10-08T11:22:51;13.68;;;3.38;;
46014;SDS011;36844;51.898;-0.874;2023-10-08T11:25:25;8.10;;;2.70;;
46014;SDS011;36844;51.898;-0.874;2023-10-08T11:27:55;15.70;;;3.72;;
46014;SDS011;36844;51.898;-0.874;2023-10-08T11:30:26;10.85;;;2.90;;
46014;SDS011;36844;51.898;-0.874;2023-10-08T11:32:56;6.97;;;2.65;;
46014;SDS011;36844;51.898;-0.874;2023-10-08T11:35:22;10.77;;;2.80;;
46014;SDS011;36844;51.898;-0.874;2023-10-08T11:37:47;10.32;;;2.83;;
46014;SDS011;36844;51.898;-0.874;2023-10-08T11:40:25;9.38;;;3.15;;
46014;SDS011;36844;51.898;-0.874;2023-10-08T11:42:57;8.90;;;3.05;;
46014;SDS011;36844;51.898;-0.874;2023-10-08T11:45:26;9.77;;;2.83;;
46014;SDS011;36844;51.898;-0.874;2023-10-08T11:47:53;10.70;;;2.55;;
46014;SDS011;36844;51.898;-0.874;2023-10-08T11:50:22;5.65;;;3.00;;
46014;SDS011;36844;51.898;-0.874;2023-10-08T11:52:55;10.30;;;3.10;;
46014;SDS011;36844;51.898;-0.874;2023-10-08T11:55:27;11.07;;;2.25;;
46014;SDS011;36844;51.898;-0.874;2023-10-08T11:57:53;12.13;;;3.17;;
46014;SDS011;36844;51.898;-0.874;2023-10-08T12:00:19;9.45;;;2.97;;
46014;SDS011;36844;51.898;-0.874;2023-10-08T12:02:48;5.18;;;2.28;;
46014;SDS011;36844;51.898;-0.874;2023-10-08T12:05:14;7.10;;;3.40;;
46014;SDS011;36844;51.898;-0.874;2023-10-08T12:07:48;5.53;;;2.60;;
46014;SDS011;36844;51.898;-0.874;2023-10-08T12:10:16;5.82;;;2.50;;
46014;SDS011;36844;51.898;-0.874;2023-10-08T12:12:51;4.63;;;2.40;;
46014;SDS011;36844;51.898;-0.874;2023-10-08T12:15:20;6.43;;;3.33;;
46014;SDS011;36844;51.898;-0.874;2023-10-08T12:17:47;6.80;;;2.75;;
46014;SDS011;36844;51.898;-0.874;2023-10-08T12:20:34;4.22;;;2.38;;
46014;SDS011;36844;51.898;-0.874;2023-10-08T12:23:02;5.25;;;2.17;;
46014;SDS011;36844;51.898;-0.874;2023-10-08T12:25:27;9.18;;;2.47;;
46014;SDS011;36844;51.898;-0.874;2023-10-08T12:27:53;10.25;;;2.42;;
46014;SDS011;36844;51.898;-0.874;2023-10-08T12:30:18;4.97;;;2.42;;
46014;SDS011;36844;51.898;-0.874;2023-10-08T12:32:44;4.13;;;2.42;;
46014;SDS011;36844;51.898;-0.874;2023-10-08T12:35:11;5.35;;;2.65;;
46014;SDS011;36844;51.898;-0.874;2023-10-08T12:37:39;6.63;;;2.53;;
46014;SDS011;36844;51.898;-0.874;2023-10-08T12:40:05;4.88;;;2.72;;
46014;SDS011;36844;51.898;-0.874;2023-10-08T12:42:47;6.15;;;2.40;;
46014;SDS011;36844;51.898;-0.874;2023-10-08T12:45:16;6.25;;;2.50;;
46014;SDS011;36844;51.898;-0.874;2023-10-08T12:47:46;7.60;;;2.22;;
46014;SDS011;36844;51.898;-0.874;2023-10-08T12:50:12;4.78;;;2.40;;
46014;SDS011;36844;51.898;-0.874;2023-10-08T12:52:41;4.07;;;2.00;;
46014;SDS011;36844;51.898;-0.874;2023-10-08T12:55:12;6.57;;;2.42;;
46014;SDS011;36844;51.898;-0.874;2023-10-08T12:57:37;7.00;;;2.78;;
46014;SDS011;36844;51.898;-0.874;2023-10-08T13:00:05;3.08;;;2.10;;
46014;SDS011;36844;51.898;-0.874;2023-10-08T13:02:33;2.28;;;1.70;;
46014;SDS011;36844;51.898;-0.874;2023-10-08T13:05:03;6.25;;;3.40;;
46014;SDS011;36844;51.898;-0.874;2023-10-08T13:07:40;4.70;;;2.17;;
46014;SDS011;36844;51.898;-0.874;2023-10-08T13:10:07;3.60;;;2.13;;
46014;SDS011;36844;51.898;-0.874;2023-10-08T13:12:36;4.22;;;1.75;;
46014;SDS011;36844;51.898;-0.874;2023-10-08T13:15:02;3.97;;;2.28;;
46014;SDS011;36844;51.898;-0.874;2023-10-08T13:17:31;4.15;;;2.05;;
46014;SDS011;36844;51.898;-0.874;2023-10-08T13:19:56;4.28;;;2.28;;
46014;SDS011;36844;51.898;-0.874;2023-10-08T13:22:22;5.03;;;2.65;;
46014;SDS011;36844;51.898;-0.874;2023-10-08T13:24:49;6.82;;;2.17;;
46014;SDS011;36844;51.898;-0.874;2023-10-08T13:27:14;5.80;;;2.10;;
46014;SDS011;36844;51.898;-0.874;2023-10-08T13:29:41;3.92;;;1.80;;
46014;SDS011;36844;51.898;-0.874;2023-10-08T13:32:08;4.30;;;2.25;;
46014;SDS011;36844;51.898;-0.874;2023-10-08T13:34:42;4.43;;;2.20;;
46014;SDS011;36844;51.898;-0.874;2023-10-08T13:37:08;20.42;;;3.22;;
46014;SDS011;36844;51.898;-0.874;2023-10-08T13:39:33;4.25;;;2.25;;
46014;SDS011;36844;51.898;-0.874;2023-10-08T13:42:00;4.00;;;2.00;;
46014;SDS011;36844;51.898;-0.874;2023-10-08T13:44:26;4.90;;;1.70;;
46014;SDS011;36844;51.898;-0.874;2023-10-08T13:46:55;3.72;;;1.98;;
46014;SDS011;36844;51.898;-0.874;2023-10-08T13:49:23;4.80;;;2.22;;
46014;SDS011;36844;51.898;-0.874;2023-10-08T13:51:48;13.27;;;2.35;;
46014;SDS011;36844;51.898;-0.874;2023-10-08T13:54:20;4.78;;;2.20;;
46014;SDS011;36844;51.898;-0.874;2023-10-08T13:56:46;7.30;;;2.47;;
46014;SDS011;36844;51.898;-0.874;2023-10-08T13:59:13;7.50;;;2.42;;
46014;SDS011;36844;51.898;-0.874;2023-10-08T14:01:40;4.47;;;2.75;;
46014;SDS011;36844;51.898;-0.874;2023-10-08T14:04:08;4.45;;;2.20;;
46014;SDS011;36844;51.898;-0.874;2023-10-08T14:06:38;7.20;;;2.72;;
46014;SDS011;36844;51.898;-0.874;2023-10-08T14:09:07;5.88;;;2.35;;
46014;SDS011;36844;51.898;-0.874;2023-10-08T14:11:36;5.32;;;2.55;;
46014;SDS011;36844;51.898;-0.874;2023-10-08T14:14:01;4.93;;;2.40;;
46014;SDS011;36844;51.898;-0.874;2023-10-08T14:16:28;4.47;;;2.35;;
46014;SDS011;36844;51.898;-0.874;2023-10-08T14:18:54;4.70;;;2.63;;
46014;SDS011;36844;51.898;-0.874;2023-10-08T14:21:23;2.67;;;1.92;;
46014;SDS011;36844;51.898;-0.874;2023-10-08T14:23:52;6.80;;;2.55;;
46014;SDS011;36844;51.898;-0.874;2023-10-08T14:26:17;5.70;;;3.45;;
46014;SDS011;36844;51.898;-0.874;2023-10-08T14:28:47;4.72;;;2.60;;
46014;SDS011;36844;51.898;-0.874;2023-10-08T14:31:18;4.55;;;2.85;;
46014;SDS011;36844;51.898;-0.874;2023-10-08T14:33:47;5.78;;;2.20;;
46014;SDS011;36844;51.898;-0.874;2023-10-08T14:36:44;5.43;;;2.00;;
46014;SDS011;36844;51.898;-0.874;2023-10-08T14:39:32;6.00;;;2.25;;
46014;SDS011;36844;51.898;-0.874;2023-10-08T14:42:17;5.20;;;2.40;;
46014;SDS011;36844;51.898;-0.874;2023-10-08T14:45:08;4.05;;;2.50;;
46014;SDS011;36844;51.898;-0.874;2023-10-08T14:47:38;4.28;;;2.13;;
46014;SDS011;36844;51.898;-0.874;2023-10-08T14:50:04;5.82;;;1.95;;
46014;SDS011;36844;51.898;-0.874;2023-10-08T14:52:30;7.82;;;2.50;;
46014;SDS011;36844;51.898;-0.874;2023-10-08T14:54:56;7.97;;;2.95;;
46014;SDS011;36844;51.898;-0.874;2023-10-08T14:57:22;4.53;;;2.42;;
46014;SDS011;36844;51.898;-0.874;2023-10-08T14:59:47;5.90;;;2.67;;
46014;SDS011;36844;51.898;-0.874;2023-10-08T15:02:13;5.10;;;2.47;;
46014;SDS011;36844;51.898;-0.874;2023-10-08T15:04:39;5.65;;;2.30;;
46014;SDS011;36844;51.898;-0.874;2023-10-08T15:07:07;3.80;;;2.22;;
46014;SDS011;36844;51.898;-0.874;2023-10-08T15:09:36;4.63;;;2.60;;